Partly Cloudy Current Weather (METAR) For Manchester Airport

All times on the weather descriptions are local

Observed at 15:20 - (33 mins ago)

Partly Cloudy

19°C

Partly Cloudy
Clouds: Scattered Clouds at 3,900ft
Wind: 130° at 11 knots
Visibility: Greater than 10km
QNH: 1013
Dew Point: 10°C
Runway in Use: Likely Runways 05L/R

Sunrise Today: 06:09
Sunset Today: 20:11

Forecast Weather (TAF) For Manchester Airport

Issued at 01:00 - (3 days 9 hrs ago)


Runway in Use: Likely Runways 23L/R

Forecast valid until 01:00 on Sunday

METAR/TAF RAW METAR / TAF

EGCC 271420Z 13011KT 9999 SCT039 19/10 Q1013

Weather Widget

Put weather from any of our airports on your website with our weather widget.

Find Another Search

Airport Search


Please Wait Please Wait - Loading
Close
Close

Login

Username:

Password:

Remember Me:

Remember me on this computer

Forgotten your password? Get a reset password sent to your registered e-mail address

Close

User Private Message

Subject:

Message: